createdAt,value
2022-10-04T07:58:25.371Z,90.16
2022-10-04T07:59:49.497Z,90.15
2022-10-04T08:01:28.471Z,90.38
2022-10-04T08:02:39.938Z,89.48
2022-10-04T08:04:11.515Z,87.33
2022-10-04T08:14:38.022Z,80.32
2022-10-04T08:15:42.283Z,79.76
2022-10-04T08:17:11.824Z,80.68
2022-10-04T08:18:31.255Z,79.64
2022-10-04T08:19:57.975Z,79.94
2022-10-04T08:26:08.635Z,76.44
2022-10-04T08:27:26.464Z,74.45
2022-10-04T08:28:55.870Z,72.99
2022-10-04T08:30:02.430Z,69.26
2022-10-04T08:31:52.558Z,65.14
2022-10-04T08:33:20.672Z,62.77
2022-10-04T08:34:31.881Z,63.02
2022-10-04T08:36:07.722Z,65.03
2022-10-04T08:37:17.848Z,62.09
2022-10-04T08:50:05.320Z,62.89
2022-10-04T08:51:25.539Z,61.85
2022-10-04T08:52:51.909Z,59.89
2022-10-04T08:54:20.805Z,59.54
2022-10-04T08:56:03.782Z,57.79
2022-10-04T08:57:15.677Z,58.94
2022-10-04T08:58:55.234Z,61.10
2022-10-04T09:00:08.797Z,62.29
2022-10-04T09:01:28.595Z,59.15
2022-10-04T09:08:03.581Z,57.53
2022-10-04T09:09:40.609Z,55.89
2022-10-04T09:11:00.441Z,55.26
2022-10-04T09:12:17.036Z,58.06
2022-10-04T09:13:40.593Z,56.37
2022-10-04T09:20:26.280Z,59.17
2022-10-04T09:21:43.672Z,60.39
2022-10-04T09:23:06.281Z,61.61
2022-10-04T09:24:26.761Z,60.45
2022-10-04T09:25:51.462Z,59.33
2022-10-04T09:27:36.811Z,59.07
2022-10-04T09:29:05.473Z,61.21
2022-10-04T09:30:17.705Z,61.24
2022-10-04T09:31:53.265Z,58.76
2022-10-04T09:33:14.613Z,60.32
2022-10-04T09:34:28.001Z,60.00
2022-10-04T09:35:41.636Z,59.45
2022-10-04T09:37:12.928Z,60.19
2022-10-04T09:45:24.849Z,57.33
2022-10-04T09:46:56.679Z,57.43
2022-10-04T09:48:30.016Z,56.51
2022-10-04T09:50:00.633Z,54.97
2022-10-04T09:51:13.902Z,53.38
2022-10-04T09:52:21.403Z,52.98
2022-10-04T09:53:40.250Z,52.01
2022-10-04T09:55:13.245Z,51.11
2022-10-04T09:56:31.517Z,53.19
2022-10-04T09:58:07.811Z,55.35
2022-10-04T09:59:27.778Z,55.18
2022-10-04T10:00:44.487Z,57.24
2022-10-04T10:02:29.081Z,58.56
2022-10-04T10:03:47.444Z,57.72
2022-10-04T10:05:19.633Z,56.81
2022-10-04T10:07:00.308Z,56.37
2022-10-04T10:08:27.980Z,52.78
2022-10-04T10:09:58.474Z,53.71
2022-10-04T10:11:54.221Z,54.52
2022-10-04T10:13:40.898Z,50.23
2022-10-04T10:14:48.272Z,47.86
2022-10-04T10:15:59.394Z,52.18
2022-10-04T10:17:24.532Z,52.03
2022-10-04T10:18:37.132Z,51.07
2022-10-04T10:19:58.906Z,48.62
2022-10-04T10:21:36.774Z,51.45
2022-10-04T10:23:10.279Z,49.15
2022-10-04T10:31:20.491Z,50.67
2022-10-04T10:32:50.911Z,48.75
2022-10-04T10:34:23.474Z,52.51
2022-10-04T10:35:27.727Z,51.02
2022-10-04T10:42:03.388Z,45.02
2022-10-04T10:43:30.169Z,42.88
2022-10-04T10:45:09.308Z,41.96
2022-10-04T10:46:27.576Z,43.11
2022-10-04T10:47:37.764Z,45.27
2022-10-04T10:49:04.565Z,44.65
2022-10-04T10:50:25.404Z,41.38
2022-10-04T10:52:05.058Z,44.14
2022-10-04T10:53:32.521Z,45.39
2022-10-04T10:55:00.955Z,51.25
2022-10-04T10:56:08.550Z,49.80
2022-10-04T10:57:34.146Z,49.59
2022-10-04T10:59:17.360Z,51.32
2022-10-04T11:00:20.298Z,48.75
2022-10-04T11:01:50.946Z,46.79
2022-10-04T11:03:23.987Z,47.04
2022-10-04T11:05:05.038Z,47.01
2022-10-04T11:06:25.099Z,47.33
2022-10-04T11:07:43.718Z,50.27
2022-10-04T11:09:10.674Z,49.75
2022-10-04T11:10:51.245Z,51.23
2022-10-04T11:19:07.021Z,52.11
2022-10-04T11:20:54.321Z,50.00
2022-10-04T11:22:32.674Z,49.26
2022-10-04T11:23:51.813Z,47.32
2022-10-04T11:36:36.081Z,45.29
2022-10-04T11:38:12.072Z,44.65
2022-10-04T11:39:30.387Z,44.45
2022-10-04T11:41:03.831Z,45.62
2022-10-04T11:42:19.089Z,45.74
2022-10-04T11:43:32.715Z,44.72
2022-10-04T11:44:47.291Z,45.41
2022-10-04T11:46:10.731Z,45.00
2022-10-04T11:47:46.666Z,45.50
2022-10-04T11:49:18.686Z,44.41
2022-10-04T11:50:41.442Z,44.21
2022-10-04T11:52:34.266Z,45.08
2022-10-04T11:53:52.909Z,45.09
2022-10-04T11:55:35.389Z,47.71
2022-10-04T11:57:09.045Z,49.42
2022-10-04T11:58:25.497Z,46.59
2022-10-04T12:00:02.325Z,46.48
2022-10-04T12:01:41.402Z,49.10
2022-10-04T12:03:40.838Z,48.46
2022-10-04T12:05:08.703Z,48.99
2022-10-04T12:06:17.014Z,47.76
2022-10-04T12:07:27.771Z,46.51
2022-10-04T12:08:40.932Z,48.44
2022-10-04T12:10:00.034Z,48.32
2022-10-04T12:11:26.351Z,46.65
2022-10-04T12:12:43.846Z,45.72
2022-10-04T12:14:22.069Z,47.47
2022-10-04T12:15:41.066Z,48.41
2022-10-04T12:17:01.411Z,47.84
2022-10-04T12:18:15.637Z,47.64
2022-10-04T12:19:40.582Z,48.12
2022-10-04T12:21:09.954Z,45.89
2022-10-04T12:22:39.259Z,44.49
2022-10-04T12:23:41.081Z,44.47
2022-10-04T12:30:04.071Z,48.81
2022-10-04T12:31:16.374Z,45.83
2022-10-04T12:32:57.722Z,46.37
2022-10-04T12:34:14.640Z,44.75
2022-10-04T12:35:34.925Z,46.75
2022-10-04T12:39:11.198Z,43.39
2022-10-04T12:40:12.513Z,42.21
2022-10-04T12:41:49.874Z,41.61
2022-10-04T12:42:56.955Z,42.32
2022-10-04T12:44:27.095Z,44.06
2022-10-04T12:45:41.669Z,44.84
2022-10-04T12:53:58.718Z,46.97
2022-10-04T12:55:24.727Z,46.56
2022-10-04T12:56:57.079Z,44.38
2022-10-04T12:58:14.354Z,43.50
2022-10-04T12:59:18.451Z,43.65
2022-10-04T13:00:25.290Z,44.57
2022-10-04T13:01:35.156Z,44.33
2022-10-04T13:02:49.448Z,44.03
2022-10-04T13:03:53.688Z,44.99
2022-10-04T13:05:03.127Z,44.30
2022-10-04T13:06:26.553Z,44.67
2022-10-04T13:07:39.129Z,45.03
2022-10-04T13:08:43.579Z,44.33
2022-10-04T13:10:24.244Z,44.20
2022-10-04T13:11:45.684Z,42.21
2022-10-04T13:13:08.816Z,43.43
2022-10-04T13:14:47.374Z,43.50
2022-10-04T13:18:23.456Z,44.23
2022-10-04T13:19:53.190Z,44.89
2022-10-04T13:21:03.893Z,45.05
2022-10-04T13:22:37.605Z,42.21
2022-10-04T13:24:01.552Z,42.45
2022-10-04T13:25:21.361Z,42.91
2022-10-04T13:26:25.425Z,43.17
2022-10-04T13:28:06.414Z,39.88
2022-10-04T13:29:34.383Z,39.43
2022-10-04T13:30:50.078Z,39.02
2022-10-04T13:32:07.849Z,40.21
2022-10-04T13:33:39.964Z,40.04
2022-10-04T13:34:53.225Z,38.76
2022-10-04T13:35:58.285Z,38.54
2022-10-04T13:37:18.134Z,37.64
2022-10-04T13:38:53.267Z,37.79
2022-10-04T13:40:15.466Z,39.11
2022-10-04T13:41:37.616Z,39.22
2022-10-04T13:43:05.947Z,39.02
2022-10-04T13:44:40.502Z,37.54
2022-10-04T13:46:16.144Z,39.21
2022-10-04T13:54:44.558Z,38.90
2022-10-04T13:56:37.413Z,39.11
2022-10-04T13:58:28.789Z,39.42
2022-10-04T13:59:39.398Z,38.68
2022-10-04T14:00:51.524Z,38.30
2022-10-04T14:01:53.365Z,39.40
2022-10-04T14:02:57.829Z,38.60
2022-10-04T14:04:36.172Z,39.29
2022-10-04T14:06:09.526Z,38.79
2022-10-04T14:07:37.979Z,37.59
2022-10-04T14:09:33.332Z,36.62
2022-10-04T14:10:53.498Z,36.97
2022-10-04T14:12:04.171Z,38.38
2022-10-04T14:13:40.619Z,38.54
2022-10-04T14:15:16.290Z,39.41
2022-10-04T14:16:51.722Z,38.11
2022-10-04T14:18:43.373Z,38.43
2022-10-04T14:20:04.572Z,37.65
2022-10-04T14:21:18.205Z,39.52
2022-10-04T14:22:31.982Z,38.71
2022-10-04T14:24:15.129Z,38.79
2022-10-04T14:25:27.168Z,41.16
2022-10-04T14:27:03.577Z,41.49
2022-10-04T14:28:26.916Z,41.89
2022-10-04T14:29:40.272Z,39.98
2022-10-04T14:31:20.075Z,38.69
2022-10-04T14:32:52.277Z,39.67
2022-10-04T14:34:27.036Z,40.02
2022-10-04T14:35:42.435Z,40.82
2022-10-04T14:37:08.723Z,40.93
2022-10-04T14:38:43.188Z,41.57
2022-10-04T14:40:07.365Z,42.54
2022-10-04T14:41:27.978Z,41.74
2022-10-04T14:42:38.409Z,43.16
2022-10-04T14:44:17.126Z,42.64
2022-10-04T14:45:27.037Z,41.72
2022-10-04T14:47:03.718Z,43.06
2022-10-04T14:48:20.555Z,42.46
2022-10-04T14:49:46.862Z,43.00
2022-10-04T14:50:50.894Z,42.71
2022-10-04T14:52:39.342Z,41.35
2022-10-04T14:54:00.983Z,42.65
2022-10-04T14:55:34.896Z,43.38
2022-10-04T14:57:15.032Z,43.49
2022-10-04T14:58:35.121Z,44.47
2022-10-04T15:00:01.520Z,44.25
2022-10-04T15:01:18.082Z,43.00
2022-10-04T15:02:22.177Z,42.19
2022-10-04T15:03:55.279Z,43.15
2022-10-04T15:05:28.542Z,43.23
2022-10-04T15:06:54.692Z,45.01
2022-10-04T17:10:21.490Z,70.37
